Time;durP1;ratioP1;P1;durP2;ratioP2;P2;SDS_P1;SDS_P2;PMS_P1;PMS_P2;Temp;Humidity;BMP_temperature;BMP_pressure;BME280_temperature;BME280_humidity;BME280_pressure;Samples;Min_cycle;Max_cycle;Signal;HPM_P1;HPM_P2
2023/08/03 00:01:55;;;;;;;4.40;1.48;;;16.40;99.90;;;;;;4953317;28;20035;-56
2023/08/03 00:04:21;;;;;;;4.15;1.70;;;16.40;99.90;;;;;;4951963;28;20038;-58
2023/08/03 00:06:46;;;;;;;8.15;1.60;;;16.50;99.90;;;;;;4953732;28;20053;-57
2023/08/03 00:09:12;;;;;;;4.68;1.75;;;16.40;99.90;;;;;;4952703;28;20055;-57
2023/08/03 00:11:38;;;;;;;5.97;1.70;;;16.50;99.90;;;;;;4954061;28;20046;-57
2023/08/03 00:14:03;;;;;;;7.57;1.98;;;16.50;99.90;;;;;;4953561;28;20068;-58
2023/08/03 00:16:29;;;;;;;8.68;1.70;;;16.50;99.90;;;;;;4951966;28;20043;-56
2023/08/03 00:18:55;;;;;;;6.28;1.60;;;16.50;99.90;;;;;;4954270;28;20050;-58
2023/08/03 00:21:20;;;;;;;5.05;1.77;;;16.50;99.90;;;;;;4953779;28;20074;-58
2023/08/03 00:23:46;;;;;;;7.25;1.58;;;16.50;99.90;;;;;;4951558;28;20401;-57
2023/08/03 00:26:12;;;;;;;4.70;1.42;;;16.50;99.90;;;;;;4956599;28;20082;-58
2023/08/03 00:28:37;;;;;;;3.92;1.80;;;16.50;99.90;;;;;;4953228;28;20504;-57
2023/08/03 00:31:03;;;;;;;7.07;1.80;;;16.50;99.90;;;;;;4953317;28;20549;-58
2023/08/03 00:33:29;;;;;;;3.05;1.42;;;16.50;99.90;;;;;;4951850;28;20046;-56
2023/08/03 00:35:56;;;;;;;1.67;1.10;;;16.50;99.90;;;;;;4943277;28;20089;-57
2023/08/03 00:38:22;;;;;;;4.78;1.38;;;16.40;99.90;;;;;;4954167;28;20055;-58
2023/08/03 00:40:50;;;;;;;4.13;1.50;;;16.50;99.90;;;;;;4953776;28;20043;-57
2023/08/03 00:43:16;;;;;;;6.07;1.48;;;16.50;99.90;;;;;;4939502;28;20634;-57
2023/08/03 00:45:41;;;;;;;3.85;1.15;;;16.50;99.90;;;;;;4954495;28;20046;-56
2023/08/03 00:48:08;;;;;;;4.75;1.48;;;16.50;99.90;;;;;;4951743;28;20584;-57
2023/08/03 00:50:34;;;;;;;4.63;1.10;;;16.50;99.90;;;;;;4938250;28;20417;-57
2023/08/03 00:52:59;;;;;;;3.10;1.20;;;16.50;99.90;;;;;;4950344;28;20035;-57
2023/08/03 00:55:25;;;;;;;3.80;1.30;;;16.50;99.90;;;;;;4953405;28;20063;-57
2023/08/03 00:57:51;;;;;;;1.98;1.10;;;16.50;99.90;;;;;;4949251;28;20035;-59
2023/08/03 01:00:17;;;;;;;6.80;1.10;;;16.40;99.90;;;;;;4948938;28;20047;-57
2023/08/03 01:02:43;;;;;;;6.35;1.40;;;16.50;99.90;;;;;;4953204;28;20095;-57
2023/08/03 01:05:08;;;;;;;3.67;1.20;;;16.40;99.90;;;;;;4944403;28;20460;-58
2023/08/03 01:07:34;;;;;;;7.55;1.30;;;16.50;99.90;;;;;;4951048;28;20512;-58
2023/08/03 01:10:00;;;;;;;3.50;1.20;;;16.50;99.90;;;;;;4946379;28;20043;-57
2023/08/03 01:12:27;;;;;;;6.25;1.30;;;16.50;99.90;;;;;;4931370;28;20054;-59
2023/08/03 01:14:53;;;;;;;2.40;1.35;;;16.50;99.90;;;;;;4952382;28;20066;-57
2023/08/03 01:17:20;;;;;;;2.67;0.90;;;16.50;99.90;;;;;;4943606;28;20043;-57
2023/08/03 01:19:46;;;;;;;4.28;1.33;;;16.40;99.90;;;;;;4946730;28;20051;-57
2023/08/03 01:22:13;;;;;;;2.75;1.50;;;16.50;99.90;;;;;;4950367;28;20484;-57
2023/08/03 01:24:39;;;;;;;4.50;1.20;;;16.40;99.90;;;;;;4950424;28;20054;-58
2023/08/03 01:27:05;;;;;;;3.72;1.23;;;16.50;99.90;;;;;;4950185;28;20051;-57
2023/08/03 01:29:31;;;;;;;4.53;1.35;;;16.50;99.90;;;;;;4951308;28;20043;-57
2023/08/03 01:31:58;;;;;;;2.67;1.33;;;16.50;99.90;;;;;;4933603;28;20045;-58
2023/08/03 01:34:24;;;;;;;2.60;1.30;;;16.40;99.90;;;;;;4948954;28;20047;-57
2023/08/03 01:36:52;;;;;;;2.45;1.35;;;16.50;99.90;;;;;;4949138;28;20093;-57
2023/08/03 01:39:17;;;;;;;5.72;1.27;;;16.50;99.90;;;;;;4949468;28;20054;-57
2023/08/03 01:41:43;;;;;;;3.03;1.52;;;16.50;99.90;;;;;;4952989;28;20038;-55
2023/08/03 01:44:18;;;;;;;3.22;1.25;;;16.40;99.90;;;;;;4940949;28;20394;-57
2023/08/03 01:46:44;;;;;;;3.33;1.52;;;16.40;99.90;;;;;;4941815;28;20066;-57
2023/08/03 01:49:09;;;;;;;2.65;1.30;;;16.40;99.90;;;;;;4951695;28;20039;-57
2023/08/03 01:51:36;;;;;;;3.00;1.23;;;16.40;99.90;;;;;;4949772;28;20050;-59
2023/08/03 01:54:02;;;;;;;2.30;1.40;;;16.40;99.90;;;;;;4951407;28;20054;-53
2023/08/03 01:56:27;;;;;;;7.07;1.42;;;16.40;99.90;;;;;;4951599;28;20051;-58
2023/08/03 01:58:53;;;;;;;3.33;1.35;;;16.40;99.90;;;;;;4949614;28;20066;-56
2023/08/03 02:01:19;;;;;;;4.18;1.85;;;16.40;99.90;;;;;;4933928;28;20043;-59
2023/08/03 02:03:44;;;;;;;2.67;1.30;;;16.40;99.90;;;;;;4951215;28;20049;-56
2023/08/03 02:06:10;;;;;;;4.43;1.25;;;16.40;99.90;;;;;;4951464;28;20035;-59
2023/08/03 02:08:36;;;;;;;2.83;1.05;;;16.40;99.90;;;;;;4953135;28;20053;-57
2023/08/03 02:11:01;;;;;;;5.03;1.20;;;16.40;99.90;;;;;;4950498;28;20047;-59
2023/08/03 02:13:27;;;;;;;3.58;1.33;;;16.40;99.90;;;;;;4951806;28;20042;-58
2023/08/03 02:15:53;;;;;;;2.95;1.13;;;16.40;99.90;;;;;;4950795;28;20093;-56
2023/08/03 02:18:18;;;;;;;4.03;1.10;;;16.40;99.90;;;;;;4949795;28;20264;-58
2023/08/03 02:20:44;;;;;;;1.52;1.33;;;16.40;99.90;;;;;;4949634;28;20042;-55
2023/08/03 02:23:10;;;;;;;3.20;1.30;;;16.40;99.90;;;;;;4947067;28;20971;-58
2023/08/03 02:25:35;;;;;;;2.65;1.35;;;16.40;99.90;;;;;;4948534;28;20034;-56
2023/08/03 02:28:01;;;;;;;3.35;1.13;;;16.40;99.90;;;;;;4945755;28;20081;-56
2023/08/03 02:30:27;;;;;;;3.05;1.20;;;16.40;99.90;;;;;;4949205;28;20061;-59
2023/08/03 02:32:53;;;;;;;2.60;1.00;;;16.40;99.90;;;;;;4951126;28;20068;-59
2023/08/03 02:35:18;;;;;;;5.38;1.13;;;16.40;99.90;;;;;;4948788;28;20066;-58
2023/08/03 02:37:44;;;;;;;3.50;1.23;;;16.40;99.90;;;;;;4948357;28;20049;-58
2023/08/03 02:40:10;;;;;;;2.80;1.30;;;16.40;99.90;;;;;;4949039;28;20058;-57
2023/08/03 02:42:36;;;;;;;2.85;1.30;;;16.40;99.90;;;;;;4946914;28;20043;-58
2023/08/03 02:45:02;;;;;;;4.25;1.30;;;16.40;99.90;;;;;;4950019;28;20054;-57
2023/08/03 02:47:28;;;;;;;2.72;1.15;;;16.40;99.90;;;;;;4941636;28;20078;-58
2023/08/03 02:49:53;;;;;;;3.05;1.60;;;16.40;99.90;;;;;;4948575;28;20462;-59
2023/08/03 02:52:19;;;;;;;2.60;1.42;;;16.40;99.90;;;;;;4949017;28;20104;-58
2023/08/03 02:54:45;;;;;;;2.40;1.38;;;16.40;99.90;;;;;;4936770;28;21450;-59
2023/08/03 02:57:10;;;;;;;3.55;1.40;;;16.40;99.90;;;;;;4932720;28;20047;-58
2023/08/03 02:59:36;;;;;;;3.30;1.75;;;16.40;99.90;;;;;;4932389;28;20071;-57
2023/08/03 03:02:02;;;;;;;3.92;1.52;;;16.40;99.90;;;;;;4948505;28;20042;-58
2023/08/03 03:04:27;;;;;;;2.72;1.60;;;16.40;99.90;;;;;;4947857;28;20043;-57
2023/08/03 03:06:53;;;;;;;2.75;1.45;;;16.40;99.90;;;;;;4950493;28;20042;-59
2023/08/03 03:09:19;;;;;;;2.47;1.40;;;16.40;99.90;;;;;;4948310;28;20053;-56
2023/08/03 03:11:44;;;;;;;1.70;1.13;;;16.40;99.90;;;;;;4951061;28;20050;-57
2023/08/03 03:14:10;;;;;;;1.60;1.20;;;16.40;99.90;;;;;;4947802;28;20523;-59
2023/08/03 03:16:36;;;;;;;3.28;1.25;;;16.40;99.90;;;;;;4931800;28;20054;-55
2023/08/03 03:19:01;;;;;;;3.38;1.40;;;16.40;99.90;;;;;;4931762;28;20086;-57
2023/08/03 03:21:27;;;;;;;1.73;1.30;;;16.40;99.90;;;;;;4914767;28;20070;-55
2023/08/03 03:23:53;;;;;;;3.72;1.67;;;16.40;99.90;;;;;;4950400;28;20538;-58
2023/08/03 03:26:18;;;;;;;2.28;1.63;;;16.40;99.90;;;;;;4949463;28;20813;-59
2023/08/03 03:28:44;;;;;;;3.17;1.70;;;16.40;99.90;;;;;;4947970;28;20038;-58
2023/08/03 03:31:10;;;;;;;2.72;1.75;;;16.40;99.90;;;;;;4929570;28;20043;-57
2023/08/03 03:33:35;;;;;;;2.25;1.83;;;16.40;99.90;;;;;;4949985;28;20564;-58
2023/08/03 03:36:01;;;;;;;2.88;1.90;;;16.40;99.90;;;;;;4952809;28;20050;-58
2023/08/03 03:38:27;;;;;;;2.50;1.73;;;16.40;99.90;;;;;;4950385;28;20050;-58
2023/08/03 03:40:52;;;;;;;2.80;1.80;;;16.40;99.90;;;;;;4952689;28;20500;-58
2023/08/03 03:43:18;;;;;;;3.10;2.05;;;16.50;99.90;;;;;;4937000;28;20083;-56
2023/08/03 03:45:44;;;;;;;3.90;2.15;;;16.40;99.90;;;;;;4936968;28;20077;-56
2023/08/03 03:48:10;;;;;;;2.78;1.70;;;16.40;99.90;;;;;;4938199;28;20086;-59
2023/08/03 03:50:35;;;;;;;3.13;2.00;;;16.40;99.90;;;;;;4952479;28;20085;-58
2023/08/03 03:53:01;;;;;;;3.60;2.00;;;16.40;99.90;;;;;;4951566;28;20046;-57
2023/08/03 03:55:27;;;;;;;3.83;2.28;;;16.40;99.90;;;;;;4940084;28;20403;-56
2023/08/03 03:57:53;;;;;;;4.63;2.13;;;16.40;99.90;;;;;;4951931;28;20039;-58
2023/08/03 04:00:18;;;;;;;4.70;2.13;;;16.40;99.90;;;;;;4931137;28;20059;-55
2023/08/03 04:02:44;;;;;;;3.45;2.15;;;16.40;99.90;;;;;;4954903;28;20085;-59
2023/08/03 04:05:10;;;;;;;4.95;2.20;;;16.40;99.90;;;;;;4942770;28;20042;-58
2023/08/03 04:07:35;;;;;;;7.88;2.70;;;16.40;99.90;;;;;;4950350;28;20531;-58
2023/08/03 04:10:01;;;;;;;5.45;2.70;;;16.40;99.90;;;;;;4949518;28;20058;-58
2023/08/03 04:12:27;;;;;;;5.40;2.70;;;16.40;99.90;;;;;;4952152;28;20152;-56
2023/08/03 04:14:52;;;;;;;3.58;2.38;;;16.50;99.90;;;;;;4936290;28;20058;-59
2023/08/03 04:17:18;;;;;;;6.35;3.15;;;16.40;99.90;;;;;;4951053;28;20434;-58
2023/08/03 04:19:44;;;;;;;3.25;2.90;;;16.50;99.90;;;;;;4935424;28;20129;-56
2023/08/03 04:22:09;;;;;;;3.88;3.13;;;16.40;99.90;;;;;;4951814;28;20372;-58
2023/08/03 04:24:35;;;;;;;5.40;3.25;;;16.50;99.90;;;;;;4934408;28;20145;-56
2023/08/03 04:27:01;;;;;;;4.40;3.13;;;16.50;99.90;;;;;;4950230;28;20047;-58
2023/08/03 04:29:27;;;;;;;7.28;3.13;;;16.50;99.90;;;;;;4948930;28;20116;-57
2023/08/03 04:31:53;;;;;;;4.00;3.55;;;16.50;99.90;;;;;;4933473;28;20050;-57
2023/08/03 04:34:18;;;;;;;6.55;3.67;;;16.50;99.90;;;;;;4952001;28;20043;-59
2023/08/03 04:36:46;;;;;;;4.40;3.58;;;16.50;99.90;;;;;;4949968;28;20046;-59
2023/08/03 04:39:12;;;;;;;5.90;3.53;;;16.50;99.90;;;;;;4952110;28;20947;-56
2023/08/03 04:41:38;;;;;;;4.75;3.60;;;16.60;99.90;;;;;;4950326;28;20074;-59
2023/08/03 04:44:03;;;;;;;7.85;3.88;;;16.50;99.90;;;;;;4951640;28;20688;-58
2023/08/03 04:46:29;;;;;;;8.90;4.40;;;16.60;99.90;;;;;;4922601;28;20054;-58
2023/08/03 04:48:55;;;;;;;8.35;4.30;;;16.60;99.90;;;;;;4933397;28;20097;-58
2023/08/03 04:51:21;;;;;;;8.85;4.40;;;16.60;99.90;;;;;;4952825;28;20046;-59
2023/08/03 04:53:46;;;;;;;8.60;4.50;;;16.60;99.90;;;;;;4921727;28;20047;-58
2023/08/03 04:56:12;;;;;;;6.30;4.45;;;16.60;99.90;;;;;;4952522;28;20088;-59
2023/08/03 04:58:38;;;;;;;7.22;4.78;;;16.70;99.90;;;;;;4951336;28;20042;-58
2023/08/03 05:01:03;;;;;;;9.80;4.43;;;16.70;99.90;;;;;;4950495;28;20134;-58
2023/08/03 05:03:29;;;;;;;9.95;5.30;;;16.70;99.90;;;;;;4924642;28;20042;-57
2023/08/03 05:05:57;;;;;;;8.77;5.05;;;16.70;99.90;;;;;;4957483;28;20073;-57
2023/08/03 05:08:24;;;;;;;8.25;5.63;;;16.70;99.90;;;;;;4957501;28;20042;-56
2023/08/03 05:10:50;;;;;;;11.20;4.97;;;16.70;99.90;;;;;;4955283;28;20102;-58
2023/08/03 05:13:17;;;;;;;10.90;5.30;;;16.70;99.90;;;;;;4941649;28;20043;-58
2023/08/03 05:15:44;;;;;;;12.50;5.70;;;16.80;99.90;;;;;;4954577;28;20043;-56
2023/08/03 05:18:10;;;;;;;10.07;5.05;;;16.80;99.90;;;;;;4942849;28;20039;-57
2023/08/03 05:20:36;;;;;;;7.82;5.15;;;16.80;99.90;;;;;;4939175;28;20070;-59
2023/08/03 05:23:03;;;;;;;6.30;5.13;;;16.80;99.90;;;;;;4942254;28;20221;-59
2023/08/03 05:25:29;;;;;;;9.02;4.55;;;16.80;99.90;;;;;;4954124;28;20039;-58
2023/08/03 05:27:55;;;;;;;5.25;4.43;;;16.80;99.90;;;;;;4935125;28;20429;-58
2023/08/03 05:30:20;;;;;;;8.77;4.45;;;16.80;99.90;;;;;;4951825;28;20081;-57
2023/08/03 05:32:46;;;;;;;9.45;5.03;;;16.80;99.90;;;;;;4948226;28;20653;-58
2023/08/03 05:35:13;;;;;;;5.50;4.38;;;16.80;99.90;;;;;;4952604;28;20765;-58
2023/08/03 05:37:39;;;;;;;5.93;4.70;;;16.80;99.90;;;;;;4936853;28;20489;-58
2023/08/03 05:40:05;;;;;;;5.40;4.05;;;16.80;99.90;;;;;;4938078;28;20422;-58
2023/08/03 05:42:40;;;;;;;7.28;3.70;;;16.80;99.90;;;;;;4956109;28;20039;-57
2023/08/03 05:45:11;;;;;;;8.48;4.00;;;16.70;99.90;;;;;;4958534;28;20153;-58
2023/08/03 05:47:40;;;;;;;6.15;3.75;;;16.70;99.90;;;;;;4956000;28;20522;-59
2023/08/03 05:50:15;;;;;;;8.18;3.97;;;16.70;99.90;;;;;;4944909;28;20506;-59
2023/08/03 05:52:41;;;;;;;8.73;4.32;;;16.70;99.90;;;;;;4941651;28;20073;-58
2023/08/03 05:55:13;;;;;;;5.60;3.88;;;16.80;99.90;;;;;;4957297;28;20122;-58
2023/08/03 05:57:39;;;;;;;7.03;3.97;;;16.80;99.90;;;;;;4957294;28;20043;-59
2023/08/03 06:00:18;;;;;;;6.40;4.32;;;16.80;99.90;;;;;;4956262;28;20529;-58
2023/08/03 06:02:45;;;;;;;6.13;4.03;;;16.80;99.90;;;;;;4948588;28;20051;-58
2023/08/03 06:05:44;;;;;;;8.30;4.47;;;16.80;99.90;;;;;;4954770;28;20050;-57
2023/08/03 06:08:22;;;;;;;4.60;3.83;;;16.80;99.90;;;;;;4949022;28;20067;-58
2023/08/03 06:10:52;;;;;;;4.43;3.80;;;16.80;99.90;;;;;;4951688;28;20046;-57
2023/08/03 06:13:25;;;;;;;4.45;3.58;;;16.90;99.90;;;;;;4952005;28;20129;-57
2023/08/03 06:15:51;;;;;;;4.30;3.90;;;16.90;99.90;;;;;;4952747;28;20047;-54
2023/08/03 06:18:18;;;;;;;3.78;3.38;;;16.90;99.90;;;;;;4954404;28;20083;-58
2023/08/03 06:20:46;;;;;;;4.10;3.50;;;17.00;99.90;;;;;;4952558;28;20050;-59
2023/08/03 06:23:19;;;;;;;3.97;3.28;;;17.00;99.90;;;;;;4935984;28;20066;-58
2023/08/03 06:25:50;;;;;;;4.97;3.70;;;17.00;99.90;;;;;;4950080;28;20042;-59
2023/08/03 06:28:18;;;;;;;4.85;3.40;;;17.00;99.90;;;;;;4951219;28;20192;-58
2023/08/03 06:30:45;;;;;;;8.70;4.20;;;17.00;99.90;;;;;;4951320;28;20126;-58
2023/08/03 06:33:21;;;;;;;5.30;3.97;;;17.10;99.90;;;;;;4940865;28;20137;-62
2023/08/03 06:35:48;;;;;;;6.60;3.40;;;17.10;99.90;;;;;;4952710;28;20422;-60
2023/08/03 06:38:21;;;;;;;12.10;4.03;;;17.20;99.90;;;;;;4944942;28;20118;-63
2023/08/03 06:40:48;;;;;;;3.40;3.10;;;17.20;99.90;;;;;;4956876;28;20125;-62
2023/08/03 06:43:14;;;;;;;3.80;3.45;;;17.30;99.90;;;;;;4954681;28;20608;-64
2023/08/03 06:45:44;;;;;;;4.63;3.20;;;17.30;99.90;;;;;;4957169;28;20051;-63
2023/08/03 06:48:10;;;;;;;3.83;3.00;;;17.40;99.90;;;;;;4957372;28;20046;-63
2023/08/03 06:50:36;;;;;;;6.18;3.08;;;17.50;99.90;;;;;;4955462;28;20101;-63
2023/08/03 06:53:03;;;;;;;5.28;3.03;;;17.50;99.90;;;;;;4937621;28;20106;-63
2023/08/03 06:55:30;;;;;;;3.55;2.70;;;17.50;99.90;;;;;;4954897;28;20124;-63
2023/08/03 06:57:55;;;;;;;3.03;2.42;;;17.50;99.90;;;;;;4939687;28;20043;-63
2023/08/03 07:00:23;;;;;;;3.25;2.65;;;17.50;99.90;;;;;;4938998;28;20046;-63
2023/08/03 07:02:49;;;;;;;2.67;2.20;;;17.60;99.90;;;;;;4957127;28;20046;-63
2023/08/03 07:05:15;;;;;;;4.13;2.20;;;17.70;99.90;;;;;;4946377;28;20491;-62
2023/08/03 07:07:40;;;;;;;2.20;2.00;;;17.70;99.90;;;;;;4953227;28;20131;-63
2023/08/03 07:10:07;;;;;;;2.20;2.00;;;17.80;99.90;;;;;;4948840;28;20098;-62
2023/08/03 07:12:36;;;;;;;4.85;1.88;;;17.90;99.90;;;;;;4948441;28;20390;-64
2023/08/03 07:15:03;;;;;;;3.40;1.70;;;17.90;99.90;;;;;;4960823;28;20054;-63
2023/08/03 07:17:29;;;;;;;2.78;1.77;;;17.90;99.90;;;;;;4960289;28;20041;-63
2023/08/03 07:19:54;;;;;;;6.25;1.92;;;18.00;99.90;;;;;;4943819;28;20043;-64
2023/08/03 07:22:21;;;;;;;4.38;1.70;;;18.00;99.90;;;;;;4960704;28;20062;-64
2023/08/03 07:24:47;;;;;;;3.55;1.40;;;18.00;99.90;;;;;;4961812;28;20046;-60
2023/08/03 07:27:14;;;;;;;4.10;1.20;;;18.10;99.90;;;;;;4960523;28;20039;-61
2023/08/03 07:29:40;;;;;;;4.45;1.10;;;18.10;99.90;;;;;;4946320;28;20524;-63
2023/08/03 07:32:06;;;;;;;3.00;1.25;;;18.10;99.90;;;;;;4960185;28;20047;-63
2023/08/03 07:34:32;;;;;;;3.42;1.30;;;18.10;99.90;;;;;;4948413;28;20054;-64
2023/08/03 07:36:59;;;;;;;3.03;1.42;;;18.20;99.90;;;;;;4939267;28;20494;-62
2023/08/03 07:39:25;;;;;;;3.30;1.38;;;18.20;99.90;;;;;;4959908;28;20442;-63
2023/08/03 07:41:51;;;;;;;3.72;1.10;;;18.40;99.90;;;;;;4947489;28;20085;-62
2023/08/03 07:44:17;;;;;;;3.13;1.10;;;18.60;99.90;;;;;;4961357;28;20063;-61
2023/08/03 07:46:44;;;;;;;4.38;1.10;;;18.70;99.90;;;;;;4959665;28;20042;-63
2023/08/03 07:49:09;;;;;;;5.03;1.00;;;18.80;99.90;;;;;;4961960;28;20717;-61
2023/08/03 07:51:35;;;;;;;5.13;1.20;;;18.80;99.90;;;;;;4961609;28;20058;-63
2023/08/03 07:54:01;;;;;;;6.35;1.20;;;18.90;99.90;;;;;;4958423;28;20054;-63
2023/08/03 07:56:26;;;;;;;2.13;1.23;;;19.00;99.90;;;;;;4957222;28;20046;-63
2023/08/03 07:58:52;;;;;;;7.05;1.45;;;19.10;99.90;;;;;;4960849;28;20042;-63
2023/08/03 08:01:19;;;;;;;6.72;1.20;;;19.10;99.90;;;;;;4929206;28;20398;-63
2023/08/03 08:03:45;;;;;;;4.55;1.35;;;19.00;99.90;;;;;;4943184;28;20041;-62
2023/08/03 08:06:19;;;;;;;2.95;1.10;;;19.10;99.90;;;;;;4959147;28;20078;-59
2023/08/03 08:08:46;;;;;;;3.30;1.25;;;19.30;99.90;;;;;;4959356;28;20063;-61
2023/08/03 08:11:18;;;;;;;3.75;1.40;;;19.50;99.90;;;;;;4959686;28;20036;-63
2023/08/03 08:13:44;;;;;;;2.67;1.20;;;19.60;99.90;;;;;;4959983;28;20038;-62
2023/08/03 08:16:12;;;;;;;4.32;1.50;;;19.60;99.90;;;;;;4958805;28;20864;-63
2023/08/03 08:18:38;;;;;;;3.15;1.20;;;19.60;99.90;;;;;;4941494;28;20055;-62
2023/08/03 08:21:10;;;;;;;4.70;1.20;;;19.40;99.90;;;;;;4958650;28;20042;-63
2023/08/03 08:23:36;;;;;;;2.88;1.08;;;19.30;99.90;;;;;;4960342;28;20122;-63
2023/08/03 08:26:08;;;;;;;5.18;1.50;;;19.30;99.90;;;;;;4957979;28;20047;-63
2023/08/03 08:28:34;;;;;;;5.20;1.10;;;19.30;99.90;;;;;;4946612;28;20093;-63
2023/08/03 08:30:59;;;;;;;3.60;1.30;;;19.50;99.90;;;;;;4955309;28;20039;-61
2023/08/03 08:33:25;;;;;;;4.75;1.17;;;19.70;99.90;;;;;;4955239;28;20043;-63
2023/08/03 08:35:51;;;;;;;9.00;1.13;;;19.90;99.90;;;;;;4939270;28;20053;-62
2023/08/03 08:38:16;;;;;;;3.75;1.13;;;20.20;99.90;;;;;;4937570;28;20837;-63
2023/08/03 08:40:47;;;;;;;4.15;1.20;;;20.30;99.90;;;;;;4938533;28;20390;-62
2023/08/03 08:43:13;;;;;;;6.57;1.40;;;20.20;99.90;;;;;;4956710;28;20051;-63
2023/08/03 08:45:39;;;;;;;7.85;1.30;;;20.10;99.90;;;;;;4940405;28;20054;-62
2023/08/03 08:48:05;;;;;;;4.03;1.00;;;20.00;99.90;;;;;;4937974;28;20090;-62
2023/08/03 08:50:32;;;;;;;4.35;1.30;;;20.10;99.90;;;;;;4957250;28;20055;-62
2023/08/03 08:52:58;;;;;;;4.70;1.40;;;20.20;99.90;;;;;;4942394;28;20050;-62
2023/08/03 08:55:26;;;;;;;4.90;1.30;;;20.30;99.90;;;;;;4938525;28;20066;-63
2023/08/03 08:57:52;;;;;;;4.80;1.38;;;20.40;99.90;;;;;;4947788;28;20094;-63
2023/08/03 09:00:19;;;;;;;5.38;1.40;;;20.70;99.90;;;;;;4959452;28;20047;-62
2023/08/03 09:02:45;;;;;;;5.82;1.60;;;20.90;99.90;;;;;;4961235;28;20042;-60
2023/08/03 09:05:25;;;;;;;3.13;1.20;;;20.90;99.90;;;;;;4960105;28;20478;-62
2023/08/03 09:08:04;;;;;;;6.38;1.48;;;20.80;99.90;;;;;;4959016;28;20082;-62
2023/08/03 09:10:31;;;;;;;4.95;1.40;;;20.70;99.90;;;;;;4942318;28;20054;-62
2023/08/03 09:12:59;;;;;;;5.03;1.48;;;20.60;99.90;;;;;;4960321;28;20381;-61
2023/08/03 09:15:40;;;;;;;6.47;1.70;;;20.70;99.90;;;;;;4957221;28;20054;-63
2023/08/03 09:18:07;;;;;;;5.18;1.42;;;20.80;99.90;;;;;;4960533;28;20038;-61
2023/08/03 09:20:33;;;;;;;10.80;2.03;;;20.90;99.90;;;;;;4944655;28;20761;-62
2023/08/03 09:23:00;;;;;;;5.45;1.90;;;21.20;99.90;;;;;;4938410;28;20031;-60
2023/08/03 09:25:26;;;;;;;8.25;1.67;;;21.40;99.90;;;;;;4934463;28;20834;-61
2023/08/03 09:27:54;;;;;;;7.38;1.95;;;21.60;99.90;;;;;;4953114;28;20042;-61
2023/08/03 09:30:21;;;;;;;11.13;2.42;;;21.50;99.90;;;;;;4934538;28;20035;-61
2023/08/03 09:32:47;;;;;;;8.30;2.30;;;21.30;99.90;;;;;;4954959;28;20035;-61
2023/08/03 09:35:23;;;;;;;7.55;1.90;;;21.00;99.90;;;;;;4943025;28;20437;-62
2023/08/03 09:37:51;;;;;;;4.55;1.48;;;20.90;99.90;;;;;;4930104;28;20039;-62
2023/08/03 09:40:19;;;;;;;6.88;1.65;;;20.90;99.90;;;;;;4951393;28;20111;-60
2023/08/03 09:42:47;;;;;;;3.90;1.38;;;21.10;99.90;;;;;;4953336;28;20156;-61
2023/08/03 09:45:13;;;;;;;6.32;1.52;;;21.30;99.90;;;;;;4937347;28;20051;-60
2023/08/03 09:47:39;;;;;;;6.72;1.60;;;21.50;99.90;;;;;;4951013;28;20066;-62
2023/08/03 09:50:06;;;;;;;6.40;1.85;;;21.80;99.90;;;;;;4950983;28;20098;-62
2023/08/03 09:52:42;;;;;;;5.70;1.70;;;22.00;99.90;;;;;;4919894;28;20083;-62
2023/08/03 09:55:14;;;;;;;7.47;1.83;;;22.20;99.90;;;;;;4949564;28;20057;-58
2023/08/03 09:57:47;;;;;;;6.50;1.50;;;22.30;99.90;;;;;;4936650;28;20042;-62
2023/08/03 10:00:15;;;;;;;7.32;1.80;;;22.50;99.90;;;;;;4954916;28;20281;-61
2023/08/03 10:02:52;;;;;;;7.38;2.05;;;22.50;99.90;;;;;;4956889;28;20416;-62
2023/08/03 10:05:20;;;;;;;8.52;2.00;;;22.40;99.90;;;;;;4954007;28;20042;-58
2023/08/03 10:08:16;;;;;;;6.97;1.20;;;22.30;99.90;;;;;;4951420;28;20126;-62
2023/08/03 10:10:48;;;;;;;7.28;1.60;;;22.10;99.90;;;;;;4950685;28;20054;-61
2023/08/03 10:13:15;;;;;;;8.07;2.15;;;22.10;99.90;;;;;;4956559;28;20046;-60
2023/08/03 10:15:41;;;;;;;10.07;2.40;;;22.20;99.90;;;;;;4938870;28;20039;-62
2023/08/03 10:18:07;;;;;;;14.80;2.28;;;22.10;99.90;;;;;;4939013;28;20062;-60
2023/08/03 10:20:34;;;;;;;7.80;2.30;;;21.90;99.90;;;;;;4949924;28;20588;-62
2023/08/03 10:23:21;;;;;;;7.35;2.50;;;21.60;99.90;;;;;;4930735;28;20042;-58
2023/08/03 10:26:01;;;;;;;14.98;2.80;;;21.30;99.90;;;;;;4951820;28;20078;-60
2023/08/03 10:28:45;;;;;;;8.80;2.30;;;21.00;99.90;;;;;;4937657;28;20047;-63
2023/08/03 10:31:12;;;;;;;8.32;2.40;;;20.90;99.90;;;;;;4953574;28;20070;-61
2023/08/03 10:33:50;;;;;;;7.85;1.98;;;20.80;99.90;;;;;;4951755;28;20043;-62
2023/08/03 10:36:30;;;;;;;9.98;2.50;;;20.80;99.90;;;;;;4929733;28;20058;-61
2023/08/03 10:39:05;;;;;;;7.22;2.00;;;20.90;99.90;;;;;;4951220;28;20046;-62
2023/08/03 10:41:36;;;;;;;5.05;1.88;;;21.10;99.90;;;;;;4926278;28;20035;-60
2023/08/03 10:44:05;;;;;;;7.60;1.80;;;21.40;99.90;;;;;;4935846;28;20058;-63
2023/08/03 10:46:32;;;;;;;7.97;2.17;;;21.50;99.90;;;;;;4952892;28;20097;-61
2023/08/03 10:48:58;;;;;;;8.20;1.85;;;21.60;99.90;;;;;;4953077;28;20051;-62
2023/08/03 10:51:24;;;;;;;7.57;1.95;;;21.70;99.90;;;;;;4951540;28;20356;-62
2023/08/03 10:53:50;;;;;;;5.35;1.80;;;21.70;99.90;;;;;;4935517;28;20466;-63
2023/08/03 10:56:15;;;;;;;9.10;1.70;;;21.60;99.90;;;;;;4943322;28;20597;-63
2023/08/03 10:58:50;;;;;;;7.07;2.00;;;21.60;99.90;;;;;;4931417;28;20058;-61
2023/08/03 11:01:23;;;;;;;5.70;1.67;;;21.60;99.90;;;;;;4930112;28;20142;-61
2023/08/03 11:03:50;;;;;;;7.50;1.73;;;21.60;99.90;;;;;;4950614;28;20169;-62
2023/08/03 11:06:17;;;;;;;5.40;1.40;;;21.60;99.90;;;;;;4933752;28;20047;-60
2023/08/03 11:08:46;;;;;;;4.35;1.15;;;21.60;99.90;;;;;;4931001;28;20047;-60
2023/08/03 11:11:12;;;;;;;3.30;1.20;;;21.60;99.90;;;;;;4951785;28;20050;-63
2023/08/03 11:13:42;;;;;;;4.03;1.10;;;21.60;99.90;;;;;;4956181;28;20062;-63
2023/08/03 11:16:07;;;;;;;2.70;0.80;;;21.60;99.90;;;;;;4936348;28;20039;-61
2023/08/03 11:18:36;;;;;;;2.90;0.95;;;21.80;99.90;;;;;;4948686;28;20417;-61
2023/08/03 11:21:02;;;;;;;3.58;1.33;;;21.70;99.90;;;;;;4956508;28;20057;-61
2023/08/03 11:23:31;;;;;;;6.35;1.30;;;21.90;99.90;;;;;;4951884;28;20425;-61
2023/08/03 11:25:58;;;;;;;2.83;0.82;;;22.20;99.90;;;;;;4951134;28;20039;-62
2023/08/03 11:28:23;;;;;;;2.15;0.77;;;22.50;99.90;;;;;;4956486;28;20051;-61
2023/08/03 11:30:49;;;;;;;3.38;1.00;;;22.70;99.90;;;;;;4938973;28;20053;-62
2023/08/03 11:33:15;;;;;;;3.78;1.13;;;23.00;99.90;;;;;;4939226;28;20204;-61
2023/08/03 11:35:42;;;;;;;4.15;1.25;;;23.20;99.90;;;;;;4957287;28;20181;-60
2023/08/03 11:38:10;;;;;;;2.25;0.70;;;23.40;99.90;;;;;;4939489;28;20501;-62
2023/08/03 11:40:36;;;;;;;6.18;1.27;;;23.60;99.90;;;;;;4927972;28;20637;-60
2023/08/03 11:43:02;;;;;;;3.67;0.93;;;23.80;99.90;;;;;;4946704;28;20042;-60
2023/08/03 11:45:29;;;;;;;4.57;0.90;;;23.90;99.90;;;;;;4955908;28;20090;-62
2023/08/03 11:47:58;;;;;;;1.63;0.90;;;24.10;99.90;;;;;;4956888;28;20715;-62
2023/08/03 11:50:25;;;;;;;3.00;1.13;;;24.30;99.90;;;;;;4949098;28;20054;-62
2023/08/03 11:53:00;;;;;;;4.07;1.00;;;24.40;99.90;;;;;;4953670;28;20105;-61
2023/08/03 11:55:32;;;;;;;3.65;1.15;;;24.60;99.90;;;;;;4959545;28;20053;-61
2023/08/03 11:58:07;;;;;;;3.55;1.38;;;24.60;99.90;;;;;;4958284;28;20162;-62
2023/08/03 12:00:33;;;;;;;4.43;1.50;;;24.40;99.90;;;;;;4959888;28;20062;-60
2023/08/03 12:02:59;;;;;;;2.03;1.10;;;24.30;99.90;;;;;;4958685;28;20603;-61
2023/08/03 12:05:25;;;;;;;3.83;1.23;;;24.40;99.90;;;;;;4958896;28;20078;-61
2023/08/03 12:07:54;;;;;;;4.72;1.40;;;24.50;99.90;;;;;;4963692;28;20054;-61
2023/08/03 12:10:20;;;;;;;4.95;1.50;;;24.70;99.90;;;;;;4960911;28;20054;-62
2023/08/03 12:12:46;;;;;;;8.00;1.55;;;24.70;99.90;;;;;;4962077;28;20435;-61
2023/08/03 12:15:12;;;;;;;7.00;1.58;;;24.50;99.90;;;;;;4962379;28;20070;-61
2023/08/03 12:17:38;;;;;;;10.68;2.45;;;24.30;99.90;;;;;;4961576;28;20041;-62
2023/08/03 12:20:07;;;;;;;7.72;1.80;;;24.00;99.90;;;;;;4964804;28;20098;-60
2023/08/03 12:22:33;;;;;;;9.73;2.20;;;23.60;99.90;;;;;;4949061;28;20034;-61
2023/08/03 12:24:58;;;;;;;10.55;1.80;;;23.20;99.90;;;;;;4940893;28;20380;-61
2023/08/03 12:27:24;;;;;;;6.80;1.60;;;22.70;99.90;;;;;;4963389;28;20113;-62
2023/08/03 12:29:50;;;;;;;9.32;1.50;;;22.40;99.90;;;;;;4941579;28;20056;-61
2023/08/03 12:32:15;;;;;;;7.15;1.45;;;22.10;99.90;;;;;;4961885;28;20050;-62
2023/08/03 12:34:41;;;;;;;5.32;1.67;;;21.90;99.90;;;;;;4964128;28;20191;-61
2023/08/03 12:37:07;;;;;;;8.38;1.58;;;21.70;99.90;;;;;;4965223;28;20265;-60
2023/08/03 12:39:33;;;;;;;7.15;1.30;;;21.60;99.90;;;;;;4961948;28;20050;-61
2023/08/03 12:41:58;;;;;;;6.05;1.30;;;21.50;99.90;;;;;;4946540;28;20049;-61
2023/08/03 12:44:26;;;;;;;6.07;1.58;;;21.50;99.90;;;;;;4965138;28;20042;-61
2023/08/03 12:46:52;;;;;;;4.43;1.30;;;21.60;99.90;;;;;;4963407;28;20391;-62